createdAt,value
2018-10-06T00:01:06.978Z,99.90
2018-10-06T00:03:34.546Z,99.90
2018-10-06T00:06:02.179Z,99.90
2018-10-06T00:08:29.657Z,99.90
2018-10-06T00:10:57.255Z,99.90
2018-10-06T00:13:24.744Z,99.90
2018-10-06T00:15:52.272Z,99.90
2018-10-06T00:18:19.823Z,99.90
2018-10-06T00:20:47.356Z,99.90
2018-10-06T00:23:14.897Z,99.90
2018-10-06T00:25:42.465Z,99.90
2018-10-06T00:28:10.061Z,99.90
2018-10-06T00:30:37.654Z,99.90
2018-10-06T00:33:05.277Z,99.90
2018-10-06T00:35:32.830Z,99.90
2018-10-06T00:38:00.433Z,99.90
2018-10-06T00:40:28.025Z,99.90
2018-10-06T00:42:55.526Z,99.90
2018-10-06T00:45:23.020Z,99.90
2018-10-06T00:47:50.549Z,99.90
2018-10-06T00:50:18.056Z,99.90
2018-10-06T00:52:45.559Z,99.90
2018-10-06T00:55:13.045Z,99.90
2018-10-06T00:57:40.543Z,99.90
2018-10-06T01:00:08.174Z,99.90
2018-10-06T01:02:35.651Z,99.90
2018-10-06T01:05:03.301Z,99.90
2018-10-06T01:07:30.872Z,99.90
2018-10-06T01:09:58.473Z,99.90
2018-10-06T01:12:26.428Z,99.90
2018-10-06T01:14:53.888Z,99.90
2018-10-06T01:17:21.360Z,99.90
2018-10-06T01:19:48.810Z,99.90
2018-10-06T01:22:16.337Z,99.90
2018-10-06T01:24:43.822Z,99.90
2018-10-06T01:27:11.363Z,99.90
2018-10-06T01:29:38.869Z,99.90
2018-10-06T01:32:06.433Z,99.90
2018-10-06T01:34:34.332Z,99.90
2018-10-06T01:37:01.874Z,99.90
2018-10-06T01:39:29.983Z,99.90
2018-10-06T01:41:57.545Z,99.90
2018-10-06T01:44:25.164Z,99.90
2018-10-06T01:46:52.771Z,99.90
2018-10-06T01:49:20.201Z,99.90
2018-10-06T01:51:47.715Z,99.90
2018-10-06T01:54:15.302Z,99.90
2018-10-06T01:56:42.857Z,99.90
2018-10-06T01:59:10.327Z,99.90
2018-10-06T02:01:37.896Z,99.90
2018-10-06T02:04:05.655Z,99.90
2018-10-06T02:06:33.274Z,99.90
2018-10-06T02:09:00.767Z,99.90
2018-10-06T02:11:28.288Z,99.90
2018-10-06T02:13:55.764Z,99.90
2018-10-06T02:16:23.301Z,99.90
2018-10-06T02:18:50.838Z,99.90
2018-10-06T02:21:18.433Z,99.90
2018-10-06T02:23:45.972Z,99.90
2018-10-06T02:26:13.481Z,99.90
2018-10-06T02:28:41.016Z,99.90
2018-10-06T02:31:08.618Z,99.90
2018-10-06T02:33:36.148Z,99.90
2018-10-06T02:36:03.713Z,99.90
2018-10-06T02:38:31.230Z,99.90
2018-10-06T02:40:58.820Z,99.90
2018-10-06T02:43:26.341Z,99.90
2018-10-06T02:45:53.888Z,99.90
2018-10-06T02:48:21.380Z,99.90
2018-10-06T02:50:48.896Z,99.90
2018-10-06T02:53:16.427Z,99.90
2018-10-06T02:55:44.060Z,99.90
2018-10-06T02:58:11.613Z,99.90
2018-10-06T03:00:39.172Z,99.90
2018-10-06T03:03:06.668Z,99.90
2018-10-06T03:05:34.252Z,99.90
2018-10-06T03:08:01.718Z,99.90
2018-10-06T03:10:29.222Z,99.90
2018-10-06T03:12:56.792Z,99.90
2018-10-06T03:15:24.277Z,99.90
2018-10-06T03:17:51.763Z,99.90
2018-10-06T03:20:19.294Z,99.90
2018-10-06T03:22:46.809Z,99.90
2018-10-06T03:25:14.346Z,99.90
2018-10-06T03:27:41.920Z,99.90
2018-10-06T03:30:09.463Z,99.90
2018-10-06T03:32:37.043Z,99.90
2018-10-06T03:35:05.019Z,99.90
2018-10-06T03:37:32.665Z,99.90
2018-10-06T03:40:00.240Z,99.90
2018-10-06T03:42:27.908Z,99.90
2018-10-06T03:44:55.421Z,99.90
2018-10-06T03:47:23.024Z,99.90
2018-10-06T03:49:50.543Z,99.90
2018-10-06T03:52:18.070Z,99.90
2018-10-06T03:54:45.643Z,99.90
2018-10-06T03:57:13.164Z,99.90
2018-10-06T03:59:40.730Z,99.90
2018-10-06T04:02:08.295Z,99.90
2018-10-06T04:04:35.848Z,99.90
2018-10-06T04:07:03.473Z,99.90
2018-10-06T04:09:30.977Z,99.90
2018-10-06T04:11:58.496Z,99.90
2018-10-06T04:14:26.047Z,99.90
2018-10-06T04:16:53.675Z,99.90
2018-10-06T04:19:21.214Z,99.90
2018-10-06T04:21:48.724Z,99.90
2018-10-06T04:24:17.746Z,99.90
2018-10-06T04:26:45.289Z,99.90
2018-10-06T04:29:12.834Z,99.90
2018-10-06T04:31:40.499Z,99.90
2018-10-06T04:34:08.276Z,99.90
2018-10-06T04:36:36.023Z,99.90
2018-10-06T04:39:07.016Z,99.90
2018-10-06T04:41:34.703Z,99.90
2018-10-06T04:44:02.216Z,99.90
2018-10-06T04:46:29.801Z,99.90
2018-10-06T04:48:57.265Z,99.90
2018-10-06T04:51:24.725Z,99.90
2018-10-06T04:53:52.239Z,99.90
2018-10-06T04:56:19.976Z,99.90
2018-10-06T04:58:47.497Z,99.90
2018-10-06T05:01:15.025Z,99.90
2018-10-06T05:03:42.560Z,99.90
2018-10-06T05:06:10.174Z,99.90
2018-10-06T05:08:37.730Z,99.90
2018-10-06T05:11:05.319Z,99.90
2018-10-06T05:13:32.821Z,99.90
2018-10-06T05:16:00.384Z,99.90
2018-10-06T05:18:27.908Z,99.90
2018-10-06T05:20:55.608Z,99.90
2018-10-06T05:23:23.246Z,99.90
2018-10-06T05:25:50.755Z,99.90
2018-10-06T05:28:18.320Z,99.90
2018-10-06T05:30:45.902Z,99.90
2018-10-06T05:33:13.439Z,99.90
2018-10-06T05:35:41.035Z,99.90
2018-10-06T05:38:08.590Z,99.90
2018-10-06T05:40:36.065Z,99.90
2018-10-06T05:43:03.552Z,99.90
2018-10-06T05:45:31.309Z,99.90
2018-10-06T05:47:58.840Z,99.90
2018-10-06T05:50:26.372Z,99.90
2018-10-06T05:52:53.848Z,99.90
2018-10-06T05:55:21.460Z,99.90
2018-10-06T05:57:48.993Z,99.90
2018-10-06T06:00:16.493Z,99.90
2018-10-06T06:02:43.952Z,99.90
2018-10-06T06:05:12.723Z,99.90
2018-10-06T06:07:40.892Z,99.90
2018-10-06T06:10:08.829Z,99.90
2018-10-06T06:12:36.427Z,99.90
2018-10-06T06:15:05.302Z,99.90
2018-10-06T06:17:32.840Z,99.90
2018-10-06T06:20:00.322Z,99.90
2018-10-06T06:22:28.018Z,99.90
2018-10-06T06:24:55.840Z,99.90
2018-10-06T06:27:23.568Z,99.90
2018-10-06T06:29:51.343Z,99.90
2018-10-06T06:32:19.080Z,99.90
2018-10-06T06:34:49.035Z,99.90
2018-10-06T06:37:16.539Z,99.90
2018-10-06T06:39:44.168Z,99.90
2018-10-06T06:42:11.724Z,99.90
2018-10-06T06:44:39.505Z,99.90
2018-10-06T06:47:07.246Z,99.90
2018-10-06T06:49:34.895Z,99.90
2018-10-06T06:52:03.034Z,99.90
2018-10-06T06:54:30.716Z,99.90
2018-10-06T06:56:58.224Z,99.90
2018-10-06T06:59:25.768Z,99.90
2018-10-06T07:01:53.271Z,99.90
2018-10-06T07:04:20.761Z,99.90
2018-10-06T07:06:48.324Z,99.90
2018-10-06T07:09:16.020Z,99.90
2018-10-06T07:11:43.690Z,99.90
2018-10-06T07:14:11.210Z,99.90
2018-10-06T07:16:39.555Z,99.90
2018-10-06T07:19:07.166Z,99.90
2018-10-06T07:21:34.683Z,99.90
2018-10-06T07:24:02.208Z,99.90
2018-10-06T07:26:29.926Z,99.90
2018-10-06T07:28:57.621Z,99.90
2018-10-06T07:31:25.423Z,99.90
2018-10-06T07:33:52.928Z,99.90
2018-10-06T07:36:20.555Z,99.90
2018-10-06T07:38:48.092Z,99.90
2018-10-06T07:41:15.624Z,99.90
2018-10-06T07:43:43.242Z,99.90
2018-10-06T07:46:10.878Z,99.90
2018-10-06T07:48:38.511Z,99.90
2018-10-06T07:51:06.244Z,99.90
2018-10-06T07:53:33.946Z,99.90
2018-10-06T07:56:01.662Z,99.90
2018-10-06T07:58:29.328Z,99.90
2018-10-06T08:00:56.916Z,99.90
2018-10-06T08:03:24.576Z,99.90
2018-10-06T08:05:52.152Z,99.90
2018-10-06T08:08:19.746Z,99.90
2018-10-06T08:10:47.590Z,99.90
2018-10-06T08:13:15.320Z,99.90
2018-10-06T08:15:43.239Z,99.90
2018-10-06T08:18:10.852Z,99.90
2018-10-06T08:20:41.563Z,99.90
2018-10-06T08:23:09.599Z,99.90
2018-10-06T08:25:37.892Z,99.90
2018-10-06T08:28:08.437Z,99.90
2018-10-06T08:30:41.432Z,99.90
2018-10-06T08:33:10.356Z,99.90
2018-10-06T08:35:38.084Z,99.90
2018-10-06T08:38:05.638Z,99.90
2018-10-06T08:40:33.486Z,99.90
2018-10-06T08:43:01.060Z,99.90
2018-10-06T08:45:30.066Z,99.90
2018-10-06T08:47:57.947Z,99.90
2018-10-06T08:50:25.880Z,99.90
2018-10-06T08:52:54.248Z,99.90
2018-10-06T08:55:21.790Z,99.90
2018-10-06T08:57:49.432Z,99.90
2018-10-06T09:00:17.004Z,99.90
2018-10-06T09:02:44.775Z,99.90
2018-10-06T09:05:12.281Z,99.90
2018-10-06T09:07:40.063Z,99.90
2018-10-06T09:10:10.149Z,99.90
2018-10-06T09:12:38.703Z,99.90
2018-10-06T09:15:06.644Z,99.90
2018-10-06T09:17:34.169Z,99.90
2018-10-06T09:20:01.721Z,99.90
2018-10-06T09:22:29.805Z,99.90
2018-10-06T09:24:57.401Z,99.90
2018-10-06T09:27:24.977Z,99.90
2018-10-06T09:29:52.495Z,99.90
2018-10-06T09:32:20.060Z,99.90
2018-10-06T09:34:47.709Z,99.90
2018-10-06T09:37:15.472Z,99.90
2018-10-06T09:39:43.106Z,99.90
2018-10-06T09:42:10.730Z,99.90
2018-10-06T09:44:39.309Z,99.90
2018-10-06T09:47:08.029Z,99.90
2018-10-06T09:49:35.954Z,99.90
2018-10-06T09:52:03.513Z,99.90
2018-10-06T09:54:31.064Z,99.90
2018-10-06T09:57:02.679Z,99.90
2018-10-06T09:59:33.110Z,99.90
2018-10-06T10:04:10.149Z,99.90
2018-10-06T10:06:39.636Z,99.90
2018-10-06T10:09:09.983Z,99.90
2018-10-06T10:11:39.744Z,99.90
2018-10-06T10:14:08.199Z,99.90
2018-10-06T10:16:36.062Z,99.90
2018-10-06T10:19:04.072Z,99.90
2018-10-06T10:21:31.704Z,99.90
2018-10-06T10:23:59.585Z,99.90
2018-10-06T10:26:27.125Z,99.90
2018-10-06T10:28:55.201Z,99.90
2018-10-06T10:31:22.693Z,99.90
2018-10-06T10:33:50.635Z,99.90
2018-10-06T10:36:18.117Z,99.90
2018-10-06T10:38:45.657Z,99.90
2018-10-06T10:41:14.753Z,99.90
2018-10-06T10:43:42.509Z,99.90
2018-10-06T10:46:10.082Z,99.90
2018-10-06T10:48:37.616Z,99.40
2018-10-06T10:51:05.287Z,98.40
2018-10-06T10:53:32.797Z,97.70
2018-10-06T10:56:01.336Z,96.60
2018-10-06T10:58:29.216Z,95.90
2018-10-06T11:00:56.771Z,95.60
2018-10-06T11:03:24.495Z,95.00
2018-10-06T11:05:51.934Z,93.60
2018-10-06T11:08:19.540Z,93.00
2018-10-06T11:10:47.204Z,93.30
2018-10-06T11:13:14.768Z,94.30
2018-10-06T11:15:42.371Z,95.10
2018-10-06T11:18:09.872Z,95.50
2018-10-06T11:20:37.406Z,95.80
2018-10-06T11:23:04.928Z,95.50
2018-10-06T11:25:32.376Z,95.00
2018-10-06T11:27:59.928Z,95.50
2018-10-06T11:30:27.390Z,95.40
2018-10-06T11:32:54.985Z,95.50
2018-10-06T11:35:22.529Z,95.50
2018-10-06T11:37:50.087Z,96.20
2018-10-06T11:40:17.713Z,96.60
2018-10-06T11:42:45.174Z,96.80
2018-10-06T11:45:12.636Z,97.10
2018-10-06T11:47:40.891Z,97.00
2018-10-06T11:50:08.468Z,97.10
2018-10-06T11:52:36.145Z,97.40
2018-10-06T11:55:03.849Z,97.80
2018-10-06T11:57:31.292Z,98.30
2018-10-06T11:59:58.935Z,98.70
2018-10-06T12:02:26.407Z,99.10
2018-10-06T12:04:53.911Z,99.30
2018-10-06T12:07:21.442Z,99.70
2018-10-06T12:09:48.912Z,99.90
2018-10-06T12:12:16.350Z,99.90
2018-10-06T12:14:43.900Z,99.80
2018-10-06T12:17:11.311Z,99.60
2018-10-06T12:19:38.799Z,99.40
2018-10-06T12:22:06.232Z,98.20
2018-10-06T12:24:33.737Z,97.70
2018-10-06T12:27:01.429Z,97.00
2018-10-06T12:29:28.964Z,96.30
2018-10-06T12:31:56.469Z,96.90
2018-10-06T12:34:23.963Z,97.30
2018-10-06T12:36:51.944Z,97.60
2018-10-06T12:39:19.691Z,98.00
2018-10-06T12:41:47.348Z,97.50
2018-10-06T12:44:14.921Z,97.70
2018-10-06T12:46:42.412Z,98.20
2018-10-06T12:49:09.948Z,98.00
2018-10-06T12:51:37.393Z,97.60
2018-10-06T12:54:05.074Z,97.20
2018-10-06T12:56:32.628Z,97.20
2018-10-06T12:59:00.182Z,97.50
2018-10-06T13:01:27.743Z,98.20
2018-10-06T13:03:55.285Z,98.50
2018-10-06T13:06:22.873Z,98.40
2018-10-06T13:08:50.412Z,98.50
2018-10-06T13:11:18.038Z,98.50
2018-10-06T13:13:45.628Z,98.80
2018-10-06T13:16:13.238Z,99.10
2018-10-06T13:18:40.721Z,99.30
2018-10-06T13:21:08.252Z,99.50
2018-10-06T13:23:36.036Z,99.90
2018-10-06T13:26:03.896Z,99.90
2018-10-06T13:28:31.537Z,99.90
2018-10-06T13:30:59.095Z,99.90
2018-10-06T13:33:26.617Z,99.90
2018-10-06T13:35:54.524Z,99.90
2018-10-06T13:38:22.165Z,99.80
2018-10-06T13:40:49.901Z,99.80
2018-10-06T13:43:17.540Z,99.50
2018-10-06T13:45:45.238Z,99.40
2018-10-06T13:48:12.889Z,99.50
2018-10-06T13:50:41.419Z,99.90
2018-10-06T13:53:09.180Z,99.90
2018-10-06T13:55:36.910Z,99.90
2018-10-06T13:58:04.679Z,99.90
2018-10-06T14:00:32.537Z,99.90
2018-10-06T14:03:00.195Z,99.90
2018-10-06T14:05:27.849Z,99.90
2018-10-06T14:07:55.391Z,99.90
2018-10-06T14:10:23.002Z,99.90
2018-10-06T14:12:50.881Z,99.90
2018-10-06T14:15:18.591Z,99.90
2018-10-06T14:17:46.184Z,99.90
2018-10-06T14:20:13.830Z,99.90
2018-10-06T14:22:41.556Z,99.90
2018-10-06T14:25:09.656Z,99.90
2018-10-06T14:27:37.551Z,99.90
2018-10-06T14:30:05.473Z,99.90
2018-10-06T14:32:33.156Z,99.90
2018-10-06T14:35:00.730Z,99.90
2018-10-06T14:37:28.484Z,99.90
2018-10-06T14:39:56.817Z,99.90
2018-10-06T14:42:24.628Z,99.90
2018-10-06T14:44:52.205Z,99.90
2018-10-06T14:47:20.396Z,99.90
2018-10-06T14:49:48.768Z,99.90
2018-10-06T14:52:16.881Z,99.90
2018-10-06T14:54:44.945Z,99.90
2018-10-06T14:57:13.715Z,99.90
2018-10-06T14:59:41.718Z,99.90
2018-10-06T15:02:09.813Z,99.90
2018-10-06T15:04:38.639Z,99.90
2018-10-06T15:07:06.795Z,99.90
2018-10-06T15:09:34.769Z,99.90
2018-10-06T15:12:03.475Z,99.90
2018-10-06T15:14:31.136Z,99.90
2018-10-06T15:16:58.994Z,99.90
2018-10-06T15:19:26.782Z,99.90
2018-10-06T15:21:54.477Z,99.90
2018-10-06T15:24:22.164Z,99.90
2018-10-06T15:26:49.735Z,99.90
2018-10-06T15:29:17.253Z,99.90
2018-10-06T15:31:44.817Z,99.90
2018-10-06T15:34:12.457Z,99.90
2018-10-06T15:36:40.098Z,99.90
2018-10-06T15:39:08.316Z,99.90
2018-10-06T15:41:35.904Z,99.90
2018-10-06T15:44:03.565Z,99.90
2018-10-06T15:46:31.091Z,99.90
2018-10-06T15:48:58.667Z,99.90
2018-10-06T15:51:26.291Z,99.90
2018-10-06T15:53:54.032Z,99.90
2018-10-06T15:56:21.531Z,99.90
2018-10-06T15:58:49.027Z,99.90
2018-10-06T16:01:16.560Z,99.90
2018-10-06T16:03:44.732Z,99.90
2018-10-06T16:06:13.624Z,99.90
2018-10-06T16:08:41.568Z,99.90
2018-10-06T16:11:09.208Z,99.90
2018-10-06T16:13:36.716Z,99.90
2018-10-06T16:16:04.233Z,99.90
2018-10-06T16:18:31.772Z,99.90
2018-10-06T16:20:59.314Z,99.90
2018-10-06T16:23:27.537Z,99.90
2018-10-06T16:25:54.992Z,99.90
2018-10-06T16:28:22.569Z,99.90
2018-10-06T16:30:50.093Z,99.90
2018-10-06T16:33:18.018Z,99.90
2018-10-06T16:35:46.152Z,99.90
2018-10-06T16:38:13.988Z,99.90
2018-10-06T16:40:41.538Z,99.90
2018-10-06T16:43:09.839Z,99.90
2018-10-06T16:45:37.845Z,99.90
2018-10-06T16:48:05.822Z,99.90
2018-10-06T16:50:33.412Z,99.90
2018-10-06T16:53:01.185Z,99.90
2018-10-06T16:55:29.005Z,99.90
2018-10-06T16:58:03.971Z,99.90
2018-10-06T17:00:32.345Z,99.90
2018-10-06T17:03:01.296Z,99.90
2018-10-06T17:05:28.915Z,99.90
2018-10-06T17:07:56.506Z,99.90
2018-10-06T17:10:25.487Z,99.90
2018-10-06T17:12:53.109Z,99.90
2018-10-06T17:15:20.645Z,99.90
2018-10-06T17:17:48.152Z,99.90
2018-10-06T17:20:15.616Z,99.90
2018-10-06T17:22:44.134Z,99.90
2018-10-06T17:25:12.401Z,99.90
2018-10-06T17:27:42.009Z,99.90
2018-10-06T17:30:09.544Z,99.90
2018-10-06T17:32:37.027Z,99.90
2018-10-06T17:35:04.656Z,99.90
2018-10-06T17:37:33.110Z,99.90
2018-10-06T17:40:02.402Z,99.90
2018-10-06T17:42:29.895Z,99.90
2018-10-06T17:44:57.572Z,99.90
2018-10-06T17:47:25.546Z,99.90
2018-10-06T17:49:53.165Z,99.90
2018-10-06T17:52:20.507Z,99.90
2018-10-06T17:54:49.706Z,99.90
2018-10-06T17:57:17.168Z,99.90
2018-10-06T17:59:44.638Z,99.90
2018-10-06T18:02:12.180Z,99.90
2018-10-06T18:04:40.392Z,99.90
2018-10-06T18:07:08.180Z,99.90
2018-10-06T18:09:35.818Z,99.90
2018-10-06T18:12:03.267Z,99.90
2018-10-06T18:14:30.914Z,99.90
2018-10-06T18:16:59.809Z,99.90
2018-10-06T18:19:27.351Z,99.90
2018-10-06T18:21:54.887Z,99.90
2018-10-06T18:24:22.494Z,99.90
2018-10-06T18:26:50.447Z,99.90
2018-10-06T18:29:18.595Z,99.90
2018-10-06T18:31:45.985Z,99.90
2018-10-06T18:34:13.476Z,99.90
2018-10-06T18:36:41.136Z,99.90
2018-10-06T18:39:08.613Z,99.90
2018-10-06T18:41:36.303Z,99.90
2018-10-06T18:44:03.783Z,99.90
2018-10-06T18:46:31.678Z,99.90
2018-10-06T18:48:59.314Z,99.90
2018-10-06T18:51:27.311Z,99.90
2018-10-06T18:53:54.840Z,99.90
2018-10-06T18:56:22.555Z,99.90
2018-10-06T18:58:50.033Z,99.90
2018-10-06T19:01:18.640Z,99.90
2018-10-06T19:03:46.290Z,99.90
2018-10-06T19:06:13.631Z,99.90
2018-10-06T19:08:41.079Z,99.90
2018-10-06T19:11:08.539Z,99.90
2018-10-06T19:13:36.055Z,99.90
2018-10-06T19:16:04.009Z,99.90
2018-10-06T19:18:31.616Z,99.90
2018-10-06T19:21:00.047Z,99.90
2018-10-06T19:23:27.547Z,99.90
2018-10-06T19:25:55.217Z,99.90
2018-10-06T19:28:22.764Z,99.90
2018-10-06T19:30:51.004Z,99.90
2018-10-06T19:33:18.572Z,99.90
2018-10-06T19:35:46.036Z,99.90
2018-10-06T19:38:13.544Z,99.90
2018-10-06T19:40:41.138Z,99.90
2018-10-06T19:43:08.616Z,99.90
2018-10-06T19:45:37.121Z,99.90
2018-10-06T19:48:04.717Z,99.90
2018-10-06T19:50:33.520Z,99.90
2018-10-06T19:53:01.164Z,99.90
2018-10-06T19:55:29.176Z,99.90
2018-10-06T19:57:57.199Z,99.90
2018-10-06T20:00:24.651Z,99.90
2018-10-06T20:02:52.525Z,99.90
2018-10-06T20:05:21.193Z,99.90
2018-10-06T20:07:49.349Z,99.90
2018-10-06T20:10:17.053Z,99.90
2018-10-06T20:12:44.709Z,99.90
2018-10-06T20:15:12.381Z,99.90
2018-10-06T20:17:39.904Z,99.90
2018-10-06T20:20:07.452Z,99.90
2018-10-06T20:22:35.513Z,99.90
2018-10-06T20:25:03.036Z,99.90
2018-10-06T20:27:31.016Z,99.90
2018-10-06T20:29:59.098Z,99.90
2018-10-06T20:32:26.777Z,99.90
2018-10-06T20:34:54.281Z,99.90
2018-10-06T20:37:21.739Z,99.90
2018-10-06T20:39:49.251Z,99.90
2018-10-06T20:42:18.160Z,99.90
2018-10-06T20:44:46.360Z,99.90
2018-10-06T20:47:13.941Z,99.90
2018-10-06T20:49:42.836Z,99.90
2018-10-06T20:52:12.853Z,99.90
2018-10-06T20:57:25.926Z,99.90
2018-10-06T20:59:53.473Z,99.90
2018-10-06T21:02:21.097Z,99.90
2018-10-06T21:04:48.564Z,99.90
2018-10-06T21:07:16.088Z,99.90
2018-10-06T21:09:43.575Z,99.90
2018-10-06T21:12:12.855Z,99.90
2018-10-06T21:14:40.617Z,99.90
2018-10-06T21:17:09.852Z,99.90
2018-10-06T21:19:39.767Z,99.90
2018-10-06T21:22:07.859Z,99.90
2018-10-06T21:24:35.720Z,99.90
2018-10-06T21:27:03.286Z,99.90
2018-10-06T21:29:30.932Z,99.90
2018-10-06T21:31:58.477Z,99.90
2018-10-06T21:34:26.029Z,99.90
2018-10-06T21:36:53.812Z,99.90
2018-10-06T21:39:21.774Z,99.90
2018-10-06T21:41:50.056Z,99.90
2018-10-06T21:44:17.608Z,99.90
2018-10-06T21:46:45.118Z,99.90
2018-10-06T21:49:13.155Z,99.90
2018-10-06T21:51:41.982Z,99.90
2018-10-06T21:54:09.687Z,99.90
2018-10-06T21:56:38.107Z,99.90
2018-10-06T21:59:06.015Z,99.90
2018-10-06T22:01:34.680Z,99.90
2018-10-06T22:04:03.170Z,99.90
2018-10-06T22:06:31.425Z,99.90
2018-10-06T22:08:59.227Z,99.90
2018-10-06T22:11:27.749Z,99.90
2018-10-06T22:13:57.464Z,99.90
2018-10-06T22:16:26.212Z,99.90
2018-10-06T22:18:53.665Z,99.90
2018-10-06T22:21:21.250Z,99.90
2018-10-06T22:23:49.680Z,99.90
2018-10-06T22:26:17.332Z,99.90
2018-10-06T22:28:45.015Z,99.90
2018-10-06T22:31:12.462Z,99.90
2018-10-06T22:33:40.376Z,99.90
2018-10-06T22:36:07.909Z,99.90
2018-10-06T22:38:35.865Z,99.90
2018-10-06T22:41:03.530Z,99.90
2018-10-06T22:43:32.060Z,99.90
2018-10-06T22:46:00.438Z,99.90
2018-10-06T22:48:27.896Z,99.90
2018-10-06T22:50:55.445Z,99.90
2018-10-06T22:53:23.980Z,99.90
2018-10-06T22:55:51.484Z,99.90
2018-10-06T22:58:19.027Z,99.90
2018-10-06T23:00:48.270Z,99.90
2018-10-06T23:03:15.883Z,99.90
2018-10-06T23:05:43.330Z,99.90
2018-10-06T23:08:10.831Z,99.90
2018-10-06T23:10:38.396Z,99.90
2018-10-06T23:13:05.867Z,99.90
2018-10-06T23:15:33.327Z,99.90
2018-10-06T23:18:00.814Z,99.90
2018-10-06T23:20:28.283Z,99.90
2018-10-06T23:22:55.728Z,99.90
2018-10-06T23:25:23.336Z,99.90
2018-10-06T23:27:50.838Z,99.90
2018-10-06T23:30:18.315Z,99.90
2018-10-06T23:32:45.790Z,99.90
2018-10-06T23:35:13.367Z,99.90
2018-10-06T23:37:40.832Z,99.90
2018-10-06T23:40:08.336Z,99.90
2018-10-06T23:42:35.957Z,99.90
2018-10-06T23:45:03.683Z,99.90
2018-10-06T23:47:31.450Z,99.90
2018-10-06T23:49:58.960Z,99.90
2018-10-06T23:52:26.495Z,99.90
2018-10-06T23:54:53.979Z,99.90
2018-10-06T23:57:21.593Z,99.90
2018-10-06T23:59:49.414Z,99.90
